Time;durP1;ratioP1;P1;durP2;ratioP2;P2;SDS_P1;SDS_P2;PMS_P1;PMS_P2;Temp;Humidity;BMP_temperature;BMP_pressure;BME280_temperature;BME280_humidity;BME280_pressure;Samples;Min_cycle;Max_cycle;Signal;HPM_P1;HPM_P2
2022/08/31 00:06:37;;;;;;;1999.90;999.90;;;;;;;;;;4972978;28;20584;-69
2022/08/31 00:09:22;;;;;;;1999.90;999.90;;;;;;;;;;4973060;28;20259;-68
2022/08/31 00:12:09;;;;;;;1999.90;999.90;;;;;;;;;;4973102;28;20208;-69
2022/08/31 00:14:54;;;;;;;1999.90;999.90;;;;;;;;;;4972826;28;20248;-69
2022/08/31 00:17:39;;;;;;;1999.90;999.90;;;;;;;;;;4973090;28;20271;-69
2022/08/31 00:20:25;;;;;;;1999.90;999.90;;;;;;;;;;4972769;28;20203;-68
2022/08/31 00:23:11;;;;;;;1999.90;999.90;;;;;;;;;;4973078;28;20230;-69
2022/08/31 00:25:57;;;;;;;1999.90;999.90;;;;;;;;;;4972620;28;20722;-70
2022/08/31 00:28:43;;;;;;;1999.90;999.90;;;;;;;;;;4972928;28;20356;-69
2022/08/31 00:31:28;;;;;;;1999.90;999.90;;;;;;;;;;4971586;28;20203;-70
2022/08/31 00:34:13;;;;;;;1999.90;999.90;;;;;;;;;;4968341;28;20349;-69
2022/08/31 00:37:00;;;;;;;1999.90;999.90;;;;;;;;;;4977314;28;20649;-68
2022/08/31 00:39:45;;;;;;;1999.90;999.90;;;;;;;;;;4971711;28;20403;-69
2022/08/31 00:42:30;;;;;;;1999.90;999.90;;;;;;;;;;4972564;28;20219;-67
2022/08/31 00:45:17;;;;;;;1999.90;999.90;;;;;;;;;;4970775;28;20240;-69
2022/08/31 00:48:02;;;;;;;1999.90;999.90;;;;;;;;;;4970693;28;20227;-68
2022/08/31 00:50:47;;;;;;;1999.90;999.90;;;;;;;;;;4972823;28;20204;-68
2022/08/31 00:53:33;;;;;;;1999.90;999.90;;;;;;;;;;4954911;28;20578;-68
2022/08/31 00:56:18;;;;;;;1999.90;999.90;;;;;;;;;;4968203;28;20231;-68
2022/08/31 00:59:03;;;;;;;1999.90;999.90;;;;;;;;;;4976278;28;20212;-67
2022/08/31 01:01:49;;;;;;;1999.90;999.90;;;;;;;;;;4976307;28;20343;-69
2022/08/31 01:04:35;;;;;;;1999.90;999.90;;;;;;;;;;4976017;28;20586;-69
2022/08/31 01:07:19;;;;;;;1999.90;999.90;;;;;;;;;;4976289;28;20281;-68
2022/08/31 01:10:05;;;;;;;1999.90;999.90;;;;;;;;;;4975585;28;20223;-68
2022/08/31 01:12:52;;;;;;;1999.90;999.90;;;;;;;;;;4973003;28;20288;-68
2022/08/31 01:15:38;;;;;;;1999.90;999.90;;;;;;;;;;4975659;28;20232;-69
2022/08/31 01:18:24;;;;;;;1999.90;999.90;;;;;;;;;;4975940;28;20208;-67
2022/08/31 01:21:17;;;;;;;1999.90;999.90;;;;;;;;;;4976085;28;20200;-68
2022/08/31 01:24:04;;;;;;;1999.90;999.90;;;;;;;;;;4975650;28;20252;-69
2022/08/31 01:26:49;;;;;;;1999.90;999.90;;;;;;;;;;4971945;28;20291;-67
2022/08/31 01:29:36;;;;;;;1999.90;999.90;;;;;;;;;;4956162;28;20604;-67
2022/08/31 01:32:20;;;;;;;1999.90;999.90;;;;;;;;;;4956429;29;20200;-68
2022/08/31 01:35:06;;;;;;;1999.90;999.90;;;;;;;;;;4955983;29;20232;-68
2022/08/31 01:37:52;;;;;;;1999.90;999.90;;;;;;;;;;4956164;29;20437;-67
2022/08/31 01:40:46;;;;;;;1999.90;999.90;;;;;;;;;;4967141;28;20474;-67
2022/08/31 01:43:32;;;;;;;1999.90;999.90;;;;;;;;;;4975333;28;20208;-68
2022/08/31 01:46:17;;;;;;;1999.90;999.90;;;;;;;;;;4975164;28;20356;-66
2022/08/31 01:49:03;;;;;;;1999.90;999.90;;;;;;;;;;4973854;28;20605;-67
2022/08/31 01:51:48;;;;;;;1999.90;999.90;;;;;;;;;;4975400;28;20204;-67
2022/08/31 01:54:33;;;;;;;1999.90;999.90;;;;;;;;;;4975163;28;20248;-67
2022/08/31 01:57:20;;;;;;;1999.90;999.90;;;;;;;;;;4975314;28;20208;-67
2022/08/31 02:00:08;;;;;;;1999.90;999.90;;;;;;;;;;4975079;28;20207;-67
2022/08/31 02:02:53;;;;;;;1999.90;999.90;;;;;;;;;;4975224;28;20211;-68
2022/08/31 02:05:38;;;;;;;1999.90;999.90;;;;;;;;;;4974033;28;20730;-68
2022/08/31 02:08:23;;;;;;;1999.90;999.90;;;;;;;;;;4974965;28;20244;-66
2022/08/31 02:11:08;;;;;;;1999.90;999.90;;;;;;;;;;4965068;28;20288;-67
2022/08/31 02:13:55;;;;;;;1999.90;999.90;;;;;;;;;;4966846;28;20283;-67
2022/08/31 02:16:40;;;;;;;1999.90;999.90;;;;;;;;;;4974741;28;20750;-68
2022/08/31 02:19:25;;;;;;;1999.90;999.90;;;;;;;;;;4974495;28;20415;-67
2022/08/31 02:22:10;;;;;;;1999.90;999.90;;;;;;;;;;4974976;28;20295;-67
2022/08/31 02:24:55;;;;;;;1999.90;999.90;;;;;;;;;;4971497;28;20212;-68
2022/08/31 02:27:40;;;;;;;1999.90;999.90;;;;;;;;;;4974628;28;20303;-67
2022/08/31 02:30:26;;;;;;;1999.90;999.90;;;;;;;;;;4974866;28;20298;-68
2022/08/31 02:33:12;;;;;;;1999.90;999.90;;;;;;;;;;4974598;28;20282;-67
2022/08/31 02:35:57;;;;;;;1999.90;999.90;;;;;;;;;;4974284;28;20263;-67
2022/08/31 02:38:42;;;;;;;1999.90;999.90;;;;;;;;;;4973740;28;20427;-68
2022/08/31 02:41:27;;;;;;;1999.90;999.90;;;;;;;;;;4973327;28;20208;-67
2022/08/31 02:44:14;;;;;;;1999.90;999.90;;;;;;;;;;4973821;28;20308;-68
2022/08/31 02:47:00;;;;;;;1999.90;999.90;;;;;;;;;;4974394;28;20311;-67
2022/08/31 02:49:45;;;;;;;1999.90;999.90;;;;;;;;;;4974053;28;20239;-66
2022/08/31 02:52:30;;;;;;;1999.90;999.90;;;;;;;;;;4973778;28;20680;-67
2022/08/31 02:55:14;;;;;;;1999.90;999.90;;;;;;;;;;4965480;28;20488;-68
2022/08/31 02:57:59;;;;;;;1999.90;999.90;;;;;;;;;;4974184;28;20361;-66
2022/08/31 03:00:45;;;;;;;1999.90;999.90;;;;;;;;;;4974201;28;20341;-67
2022/08/31 03:03:32;;;;;;;1999.90;999.90;;;;;;;;;;4974193;28;20207;-67
2022/08/31 03:06:17;;;;;;;1999.90;999.90;;;;;;;;;;4972237;28;20650;-68
2022/08/31 03:09:03;;;;;;;1999.90;999.90;;;;;;;;;;4973679;28;20228;-67
2022/08/31 03:11:47;;;;;;;1999.90;999.90;;;;;;;;;;4974008;28;20697;-68
2022/08/31 03:14:32;;;;;;;1999.90;999.90;;;;;;;;;;4973645;28;20204;-66
2022/08/31 03:17:17;;;;;;;1999.90;999.90;;;;;;;;;;4972865;28;20281;-67
2022/08/31 03:20:05;;;;;;;1999.90;999.90;;;;;;;;;;4973182;28;20410;-67
2022/08/31 03:22:50;;;;;;;1999.90;999.90;;;;;;;;;;4973898;28;20227;-68
2022/08/31 03:25:35;;;;;;;1999.90;999.90;;;;;;;;;;4973317;28;20738;-67
2022/08/31 03:28:20;;;;;;;1999.90;999.90;;;;;;;;;;4973619;28;20713;-67
2022/08/31 03:31:06;;;;;;;1999.90;999.90;;;;;;;;;;4973886;28;20815;-67
2022/08/31 03:33:51;;;;;;;1999.90;999.90;;;;;;;;;;4973894;28;20294;-67
2022/08/31 03:36:37;;;;;;;1999.90;999.90;;;;;;;;;;4972490;28;20309;-67
2022/08/31 03:39:22;;;;;;;1999.90;999.90;;;;;;;;;;4965012;28;20494;-66
2022/08/31 03:42:07;;;;;;;1999.90;999.90;;;;;;;;;;4973400;28;20986;-67
2022/08/31 03:44:52;;;;;;;1999.90;999.90;;;;;;;;;;4972945;28;20208;-67
2022/08/31 03:47:38;;;;;;;1999.90;999.90;;;;;;;;;;4973494;28;20204;-67
2022/08/31 03:50:23;;;;;;;1999.90;999.90;;;;;;;;;;4971783;28;20220;-67
2022/08/31 03:53:10;;;;;;;1999.90;999.90;;;;;;;;;;4973348;28;20215;-67
2022/08/31 03:56:00;;;;;;;1999.90;999.90;;;;;;;;;;4972956;28;20223;-68
2022/08/31 03:58:45;;;;;;;1999.90;999.90;;;;;;;;;;4973307;28;20711;-66
2022/08/31 04:01:30;;;;;;;1999.90;999.90;;;;;;;;;;4973376;28;20207;-68
2022/08/31 04:04:15;;;;;;;1999.90;999.90;;;;;;;;;;4973217;28;20275;-66
2022/08/31 04:07:00;;;;;;;1999.90;999.90;;;;;;;;;;4973006;28;20235;-68
2022/08/31 04:09:47;;;;;;;1999.90;999.90;;;;;;;;;;4972262;28;20622;-68
2022/08/31 04:12:32;;;;;;;1999.90;999.90;;;;;;;;;;4972876;28;20275;-68
2022/08/31 04:15:17;;;;;;;1999.90;999.90;;;;;;;;;;4972964;28;20590;-70
2022/08/31 04:18:02;;;;;;;1999.90;999.90;;;;;;;;;;4973000;28;20708;-68
2022/08/31 04:20:47;;;;;;;1999.90;999.90;;;;;;;;;;4963600;28;20953;-67
2022/08/31 04:23:32;;;;;;;1999.90;999.90;;;;;;;;;;4953539;29;20341;-67
2022/08/31 04:26:19;;;;;;;1999.90;999.90;;;;;;;;;;4953445;28;20232;-68
2022/08/31 04:29:06;;;;;;;1999.90;999.90;;;;;;;;;;4956894;28;20275;-67
2022/08/31 04:31:51;;;;;;;1999.90;999.90;;;;;;;;;;4960009;28;20738;-67
2022/08/31 04:34:36;;;;;;;1999.90;999.90;;;;;;;;;;4969044;28;20212;-64
2022/08/31 04:37:21;;;;;;;1999.90;999.90;;;;;;;;;;4975261;28;20208;-68
2022/08/31 04:40:16;;;;;;;1999.90;999.90;;;;;;;;;;4973650;28;20953;-67
2022/08/31 04:43:03;;;;;;;1999.90;999.90;;;;;;;;;;4973149;28;20303;-67
2022/08/31 04:45:47;;;;;;;1999.90;999.90;;;;;;;;;;4974677;28;20652;-67
2022/08/31 04:48:33;;;;;;;1999.90;999.90;;;;;;;;;;4975348;28;20268;-67
2022/08/31 04:51:18;;;;;;;1999.90;999.90;;;;;;;;;;4975296;28;20339;-67
2022/08/31 04:54:04;;;;;;;1999.90;999.90;;;;;;;;;;4964158;28;20216;-67
2022/08/31 04:56:49;;;;;;;1999.90;999.90;;;;;;;;;;4957259;28;20579;-67
2022/08/31 04:59:36;;;;;;;1999.90;999.90;;;;;;;;;;4957267;29;20731;-66
2022/08/31 05:02:21;;;;;;;1999.90;999.90;;;;;;;;;;4957263;29;20664;-70
2022/08/31 05:05:06;;;;;;;1999.90;999.90;;;;;;;;;;4966194;28;20223;-69
2022/08/31 05:07:51;;;;;;;1999.90;999.90;;;;;;;;;;4976001;28;20583;-68
2022/08/31 05:10:37;;;;;;;1999.90;999.90;;;;;;;;;;4974631;28;20236;-67
2022/08/31 05:13:23;;;;;;;1999.90;999.90;;;;;;;;;;4975939;28;20200;-69
2022/08/31 05:16:10;;;;;;;1999.90;999.90;;;;;;;;;;4975651;28;20240;-66
2022/08/31 05:18:56;;;;;;;1999.90;999.90;;;;;;;;;;4975806;28;20203;-67
2022/08/31 05:21:42;;;;;;;1999.90;999.90;;;;;;;;;;4976118;28;20575;-67
2022/08/31 05:24:29;;;;;;;1999.90;999.90;;;;;;;;;;4975805;28;20207;-67
2022/08/31 05:27:14;;;;;;;1999.90;999.90;;;;;;;;;;4975947;28;20210;-67
2022/08/31 05:29:59;;;;;;;1999.90;999.90;;;;;;;;;;4959724;28;20613;-69
2022/08/31 05:32:45;;;;;;;1999.90;999.90;;;;;;;;;;4956642;29;20754;-69
2022/08/31 05:35:30;;;;;;;1999.90;999.90;;;;;;;;;;4956070;29;20220;-70
2022/08/31 05:38:15;;;;;;;1999.90;999.90;;;;;;;;;;4956341;29;20220;-68
2022/08/31 05:41:00;;;;;;;1999.90;999.90;;;;;;;;;;4954746;29;20920;-66
2022/08/31 05:43:45;;;;;;;1999.90;999.90;;;;;;;;;;4972956;28;20219;-69
2022/08/31 05:46:30;;;;;;;1999.90;999.90;;;;;;;;;;4975002;28;20224;-69
2022/08/31 05:49:16;;;;;;;1999.90;999.90;;;;;;;;;;4975378;28;20216;-69
2022/08/31 05:52:02;;;;;;;1999.90;999.90;;;;;;;;;;4973388;28;20279;-69
2022/08/31 05:54:47;;;;;;;1999.90;999.90;;;;;;;;;;4975138;28;20660;-69
2022/08/31 05:57:32;;;;;;;1999.90;999.90;;;;;;;;;;4972484;28;20785;-69
2022/08/31 06:00:17;;;;;;;1999.90;999.90;;;;;;;;;;4966232;28;20211;-68
2022/08/31 06:03:02;;;;;;;1999.90;999.90;;;;;;;;;;4973926;28;20224;-68
2022/08/31 06:05:49;;;;;;;1999.90;999.90;;;;;;;;;;4970547;28;20232;-68
2022/08/31 06:08:34;;;;;;;1999.90;999.90;;;;;;;;;;4973680;28;20208;-68
2022/08/31 06:11:22;;;;;;;1999.90;999.90;;;;;;;;;;4970741;28;20352;-69
2022/08/31 06:14:08;;;;;;;1999.90;999.90;;;;;;;;;;4973451;28;20204;-69
2022/08/31 06:16:55;;;;;;;1999.90;999.90;;;;;;;;;;4973702;28;20236;-69
2022/08/31 06:19:39;;;;;;;1999.90;999.90;;;;;;;;;;4967439;28;20272;-69
2022/08/31 06:22:26;;;;;;;1999.90;999.90;;;;;;;;;;4965210;28;20215;-68
2022/08/31 06:25:16;;;;;;;1999.90;999.90;;;;;;;;;;4972480;28;20339;-68
2022/08/31 06:28:01;;;;;;;1999.90;999.90;;;;;;;;;;4970762;28;20216;-69
2022/08/31 06:30:46;;;;;;;1999.90;999.90;;;;;;;;;;4969639;28;20305;-69
2022/08/31 06:33:31;;;;;;;1999.90;999.90;;;;;;;;;;4969996;28;20293;-70
2022/08/31 06:36:17;;;;;;;1999.90;999.90;;;;;;;;;;4968206;28;20237;-68
2022/08/31 06:39:04;;;;;;;1999.90;999.90;;;;;;;;;;4971282;28;20203;-68
2022/08/31 06:41:51;;;;;;;1999.90;999.90;;;;;;;;;;4970006;28;20462;-68
2022/08/31 06:44:36;;;;;;;1999.90;999.90;;;;;;;;;;4970715;28;20231;-69
2022/08/31 06:47:21;;;;;;;1999.90;999.90;;;;;;;;;;4968005;28;20731;-69
2022/08/31 06:50:07;;;;;;;1999.90;999.90;;;;;;;;;;4969297;28;20313;-68
2022/08/31 06:52:54;;;;;;;1999.90;999.90;;;;;;;;;;4970204;28;20212;-68
2022/08/31 06:55:40;;;;;;;1999.90;999.90;;;;;;;;;;4970335;28;20232;-66
2022/08/31 06:58:25;;;;;;;1999.90;999.90;;;;;;;;;;4970477;28;20260;-68
2022/08/31 07:01:12;;;;;;;1999.90;999.90;;;;;;;;;;4970722;28;20203;-68
2022/08/31 07:03:58;;;;;;;1999.90;999.90;;;;;;;;;;4970749;28;20208;-68
2022/08/31 07:06:44;;;;;;;1999.90;999.90;;;;;;;;;;4970433;28;20286;-69
2022/08/31 07:09:29;;;;;;;1999.90;999.90;;;;;;;;;;4971342;28;20232;-69
2022/08/31 07:12:15;;;;;;;1999.90;999.90;;;;;;;;;;4969661;28;20227;-67
2022/08/31 07:15:00;;;;;;;1999.90;999.90;;;;;;;;;;4970590;28;20223;-69
2022/08/31 07:17:44;;;;;;;1999.90;999.90;;;;;;;;;;4971529;28;20289;-69
2022/08/31 07:20:29;;;;;;;1999.90;999.90;;;;;;;;;;4969694;28;20211;-68
2022/08/31 07:23:14;;;;;;;1999.90;999.90;;;;;;;;;;4970386;28;20431;-71
2022/08/31 07:26:02;;;;;;;1999.90;999.90;;;;;;;;;;4969885;28;20322;-70
2022/08/31 07:28:52;;;;;;;1999.90;999.90;;;;;;;;;;4969961;28;20574;-68
2022/08/31 07:31:45;;;;;;;1999.90;999.90;;;;;;;;;;4970803;28;20266;-69
2022/08/31 07:34:32;;;;;;;1999.90;999.90;;;;;;;;;;4954004;29;20201;-69
2022/08/31 07:43:23;;;;;;;1999.90;999.90;;;;;;;;;;4965268;28;20796;-70
2022/08/31 07:46:10;;;;;;;1999.90;999.90;;;;;;;;;;4963839;28;20361;-69
2022/08/31 07:48:55;;;;;;;1999.90;999.90;;;;;;;;;;4973421;28;20207;-69
2022/08/31 07:51:44;;;;;;;1999.90;999.90;;;;;;;;;;4970746;28;20213;-69
2022/08/31 07:54:31;;;;;;;1999.90;999.90;;;;;;;;;;4967301;28;20576;-67
2022/08/31 07:57:17;;;;;;;1999.90;999.90;;;;;;;;;;4973015;28;20330;-67
2022/08/31 08:00:07;;;;;;;1999.90;999.90;;;;;;;;;;4969599;28;20210;-67
2022/08/31 08:02:54;;;;;;;1999.90;999.90;;;;;;;;;;4968835;28;20706;-66
2022/08/31 08:05:40;;;;;;;1999.90;999.90;;;;;;;;;;4968963;28;20281;-67
2022/08/31 08:08:25;;;;;;;1999.90;999.90;;;;;;;;;;4971123;28;20219;-68
2022/08/31 08:11:15;;;;;;;1999.90;999.90;;;;;;;;;;4970225;28;20778;-67
2022/08/31 08:14:01;;;;;;;1999.90;999.90;;;;;;;;;;4964811;28;20205;-67
2022/08/31 08:16:46;;;;;;;1999.90;999.90;;;;;;;;;;4972621;28;20353;-68
2022/08/31 08:19:33;;;;;;;1999.90;999.90;;;;;;;;;;4968363;28;20328;-68
2022/08/31 08:22:18;;;;;;;1999.90;999.90;;;;;;;;;;4972126;28;20214;-67
2022/08/31 08:25:05;;;;;;;1999.90;999.90;;;;;;;;;;4971535;28;20406;-68
2022/08/31 08:27:52;;;;;;;1999.90;999.90;;;;;;;;;;4972984;28;20317;-66
2022/08/31 08:30:39;;;;;;;1999.90;999.90;;;;;;;;;;4972887;28;20817;-68
2022/08/31 08:33:24;;;;;;;1999.90;999.90;;;;;;;;;;4972890;28;20226;-69
2022/08/31 08:36:10;;;;;;;1999.90;999.90;;;;;;;;;;4972579;28;20230;-67
2022/08/31 08:38:56;;;;;;;1999.90;999.90;;;;;;;;;;4973202;28;20212;-67
2022/08/31 08:41:42;;;;;;;1999.90;999.90;;;;;;;;;;4971147;28;20435;-68
2022/08/31 08:44:28;;;;;;;1999.90;999.90;;;;;;;;;;4971053;28;20344;-68
2022/08/31 08:47:17;;;;;;;1999.90;999.90;;;;;;;;;;4972398;28;20214;-68
2022/08/31 08:50:05;;;;;;;1999.90;999.90;;;;;;;;;;4969555;28;20216;-67
2022/08/31 08:52:51;;;;;;;1999.90;999.90;;;;;;;;;;4971836;28;20213;-68
2022/08/31 08:55:38;;;;;;;1999.90;999.90;;;;;;;;;;4969977;28;20235;-68
2022/08/31 08:58:24;;;;;;;1999.90;999.90;;;;;;;;;;4970690;28;20325;-67
2022/08/31 09:01:10;;;;;;;1999.90;999.90;;;;;;;;;;4971260;28;20318;-67
2022/08/31 09:03:59;;;;;;;1999.90;999.90;;;;;;;;;;4971378;28;20283;-67
2022/08/31 09:06:53;;;;;;;1999.90;999.90;;;;;;;;;;4971245;28;20253;-67
2022/08/31 09:09:41;;;;;;;1999.90;999.90;;;;;;;;;;4965682;28;20423;-66
2022/08/31 09:12:30;;;;;;;1999.90;999.90;;;;;;;;;;4964835;28;20214;-67
2022/08/31 09:15:20;;;;;;;1999.90;999.90;;;;;;;;;;4973772;28;20230;-67
2022/08/31 09:18:10;;;;;;;1999.90;999.90;;;;;;;;;;4976322;28;20592;-67
2022/08/31 09:21:02;;;;;;;1999.90;999.90;;;;;;;;;;4976002;28;20223;-67
2022/08/31 09:23:52;;;;;;;1999.90;999.90;;;;;;;;;;4975707;28;20703;-66
2022/08/31 09:26:50;;;;;;;1999.90;999.90;;;;;;;;;;4976003;28;20277;-67
2022/08/31 09:29:43;;;;;;;1999.90;999.90;;;;;;;;;;4975869;28;20206;-67
2022/08/31 09:32:30;;;;;;;1999.90;999.90;;;;;;;;;;4975987;28;20207;-67
2022/08/31 09:35:22;;;;;;;1999.90;999.90;;;;;;;;;;4975636;28;20505;-66
2022/08/31 09:38:09;;;;;;;1999.90;999.90;;;;;;;;;;4974232;28;20493;-67
2022/08/31 09:40:54;;;;;;;1999.90;999.90;;;;;;;;;;4975886;28;20204;-68
2022/08/31 09:43:41;;;;;;;1999.90;999.90;;;;;;;;;;4975656;28;20218;-67
2022/08/31 09:46:28;;;;;;;1999.90;999.90;;;;;;;;;;4975271;28;20378;-68
2022/08/31 09:49:19;;;;;;;1999.90;999.90;;;;;;;;;;4975680;28;20211;-67
2022/08/31 09:52:19;;;;;;;1999.90;999.90;;;;;;;;;;4975410;28;20226;-68
2022/08/31 09:55:12;;;;;;;1999.90;999.90;;;;;;;;;;4974780;28;20318;-67
2022/08/31 09:58:09;;;;;;;1999.90;999.90;;;;;;;;;;4975579;28;20569;-66
2022/08/31 10:00:56;;;;;;;1999.90;999.90;;;;;;;;;;4975503;28;20223;-67
2022/08/31 10:03:44;;;;;;;1999.90;999.90;;;;;;;;;;4975286;28;20214;-67
2022/08/31 10:06:40;;;;;;;1999.90;999.90;;;;;;;;;;4974888;28;20239;-66
2022/08/31 10:09:34;;;;;;;1999.90;999.90;;;;;;;;;;4974987;28;20965;-67
2022/08/31 10:12:20;;;;;;;1999.90;999.90;;;;;;;;;;4975121;28;20215;-68
2022/08/31 10:15:10;;;;;;;1999.90;999.90;;;;;;;;;;4974764;28;20276;-67
2022/08/31 10:18:02;;;;;;;1999.90;999.90;;;;;;;;;;4974976;28;20312;-67
2022/08/31 10:20:52;;;;;;;1999.90;999.90;;;;;;;;;;4974783;28;20239;-66
2022/08/31 10:23:46;;;;;;;1999.90;999.90;;;;;;;;;;4974660;28;20589;-67
2022/08/31 10:26:35;;;;;;;1999.90;999.90;;;;;;;;;;4974149;28;20226;-67
2022/08/31 10:29:33;;;;;;;1999.90;999.90;;;;;;;;;;4974837;28;20254;-67
2022/08/31 10:32:23;;;;;;;1999.90;999.90;;;;;;;;;;4974369;28;20790;-66
2022/08/31 10:35:13;;;;;;;1999.90;999.90;;;;;;;;;;4974324;28;20224;-67
2022/08/31 10:38:07;;;;;;;1999.90;999.90;;;;;;;;;;4974582;28;20638;-65
2022/08/31 10:40:58;;;;;;;1999.90;999.90;;;;;;;;;;4974590;28;20204;-68
2022/08/31 10:43:45;;;;;;;1999.90;999.90;;;;;;;;;;4974754;28;20203;-67
2022/08/31 10:46:31;;;;;;;1999.90;999.90;;;;;;;;;;4974108;28;20227;-67
2022/08/31 10:49:19;;;;;;;1999.90;999.90;;;;;;;;;;4974406;28;20212;-67
2022/08/31 10:52:10;;;;;;;1999.90;999.90;;;;;;;;;;4974097;28;20630;-66
2022/08/31 10:55:04;;;;;;;1999.90;999.90;;;;;;;;;;4974225;28;20208;-68
2022/08/31 10:57:53;;;;;;;1999.90;999.90;;;;;;;;;;4974324;28;20223;-68
2022/08/31 11:00:47;;;;;;;1999.90;999.90;;;;;;;;;;4974264;28;20247;-67
2022/08/31 11:03:42;;;;;;;1999.90;999.90;;;;;;;;;;4974134;28;20279;-67
2022/08/31 11:06:31;;;;;;;1999.90;999.90;;;;;;;;;;4973438;28;20279;-67
2022/08/31 11:09:21;;;;;;;1999.90;999.90;;;;;;;;;;4973071;28;20407;-66
2022/08/31 11:12:07;;;;;;;1999.90;999.90;;;;;;;;;;4973677;28;20244;-68
2022/08/31 11:15:10;;;;;;;1999.90;999.90;;;;;;;;;;4973676;28;20212;-68
2022/08/31 11:18:08;;;;;;;1999.90;999.90;;;;;;;;;;4971453;28;20223;-67
2022/08/31 11:21:03;;;;;;;1999.90;999.90;;;;;;;;;;4974064;28;20255;-68
2022/08/31 11:23:55;;;;;;;1999.90;999.90;;;;;;;;;;4973600;28;20304;-67
2022/08/31 11:26:49;;;;;;;1999.90;999.90;;;;;;;;;;4973601;28;20376;-68
2022/08/31 11:29:40;;;;;;;1999.90;999.90;;;;;;;;;;4973452;28;20585;-67
2022/08/31 11:32:28;;;;;;;1999.90;999.90;;;;;;;;;;4973909;28;20224;-67
2022/08/31 11:35:14;;;;;;;1999.90;999.90;;;;;;;;;;4973502;28;20328;-67
2022/08/31 11:37:59;;;;;;;1999.90;999.90;;;;;;;;;;4972961;28;20212;-67
2022/08/31 11:41:10;;;;;;;1999.90;999.90;;;;;;;;;;4973572;28;20204;-67
2022/08/31 11:43:56;;;;;;;1999.90;999.90;;;;;;;;;;4973517;28;20199;-67
2022/08/31 11:47:03;;;;;;;1999.90;999.90;;;;;;;;;;4973455;28;20227;-68
2022/08/31 11:49:49;;;;;;;1999.90;999.90;;;;;;;;;;4973653;28;20207;-67
2022/08/31 11:52:47;;;;;;;1999.90;999.90;;;;;;;;;;4973223;28;20275;-67
2022/08/31 11:55:45;;;;;;;1999.90;999.90;;;;;;;;;;4973058;28;20332;-68
2022/08/31 11:58:33;;;;;;;1999.90;999.90;;;;;;;;;;4973441;28;20690;-67
2022/08/31 12:01:34;;;;;;;1999.90;999.90;;;;;;;;;;4973284;28;20200;-68
2022/08/31 12:04:40;;;;;;;1999.90;999.90;;;;;;;;;;4973386;28;20207;-68
2022/08/31 12:07:28;;;;;;;1999.90;999.90;;;;;;;;;;4972179;28;20235;-68
2022/08/31 12:10:25;;;;;;;1999.90;999.90;;;;;;;;;;4973178;28;20211;-66
2022/08/31 12:13:18;;;;;;;1999.90;999.90;;;;;;;;;;4973122;28;20280;-67
2022/08/31 12:16:08;;;;;;;1999.90;999.90;;;;;;;;;;4972607;28;20243;-68
2022/08/31 12:25:23;;;;;;;1999.90;999.90;;;;;;;;;;4972740;28;20251;-67
2022/08/31 12:28:15;;;;;;;1999.90;999.90;;;;;;;;;;4972421;28;20418;-67
2022/08/31 12:31:03;;;;;;;1999.90;999.90;;;;;;;;;;4972953;28;20580;-67
2022/08/31 12:33:55;;;;;;;1999.90;999.90;;;;;;;;;;4972713;28;20204;-67
2022/08/31 12:36:42;;;;;;;1999.90;999.90;;;;;;;;;;4972964;28;20581;-67
2022/08/31 12:39:29;;;;;;;1999.90;999.90;;;;;;;;;;4972911;28;20212;-68
2022/08/31 12:42:14;;;;;;;1999.90;999.90;;;;;;;;;;4973113;28;20776;-68
2022/08/31 12:44:58;;;;;;;1999.90;999.90;;;;;;;;;;4972438;28;20681;-67
2022/08/31 12:47:48;;;;;;;1999.90;999.90;;;;;;;;;;4972836;28;20203;-67
2022/08/31 12:50:36;;;;;;;1999.90;999.90;;;;;;;;;;4976392;28;20263;-67
2022/08/31 12:53:44;;;;;;;1999.90;999.90;;;;;;;;;;4976746;28;20203;-67
2022/08/31 12:56:31;;;;;;;1999.90;999.90;;;;;;;;;;4976263;28;20229;-67
2022/08/31 12:59:22;;;;;;;1999.90;999.90;;;;;;;;;;4976577;28;20208;-67
2022/08/31 13:02:10;;;;;;;1999.90;999.90;;;;;;;;;;4976177;28;20205;-67
2022/08/31 13:04:54;;;;;;;1999.90;999.90;;;;;;;;;;4975948;28;20225;-67
2022/08/31 13:07:39;;;;;;;1999.90;999.90;;;;;;;;;;4976439;28;20247;-68
2022/08/31 13:10:28;;;;;;;1999.90;999.90;;;;;;;;;;4975353;28;20223;-68
2022/08/31 13:13:21;;;;;;;1999.90;999.90;;;;;;;;;;4956616;28;20208;-67
2022/08/31 13:16:07;;;;;;;1999.90;999.90;;;;;;;;;;4962444;28;20280;-67
2022/08/31 13:18:58;;;;;;;1999.90;999.90;;;;;;;;;;4975987;28;20239;-68
2022/08/31 13:21:48;;;;;;;1999.90;999.90;;;;;;;;;;4975741;28;20236;-68
2022/08/31 13:24:33;;;;;;;1999.90;999.90;;;;;;;;;;4975705;28;20208;-67
2022/08/31 13:27:21;;;;;;;1999.90;999.90;;;;;;;;;;4971666;28;20823;-66
2022/08/31 13:30:11;;;;;;;1999.90;999.90;;;;;;;;;;4973081;28;20293;-68
2022/08/31 13:32:55;;;;;;;1999.90;999.90;;;;;;;;;;4974529;28;20241;-68
2022/08/31 13:35:42;;;;;;;1999.90;999.90;;;;;;;;;;4972765;28;20650;-67
2022/08/31 13:38:41;;;;;;;1999.90;999.90;;;;;;;;;;4956498;29;20208;-66
2022/08/31 13:41:27;;;;;;;1999.90;999.90;;;;;;;;;;4961901;28;20213;-67
2022/08/31 13:44:13;;;;;;;1999.90;999.90;;;;;;;;;;4975051;28;20580;-69
2022/08/31 13:47:01;;;;;;;1999.90;999.90;;;;;;;;;;4972663;28;20660;-68
2022/08/31 13:49:48;;;;;;;1999.90;999.90;;;;;;;;;;4975164;28;20297;-67
2022/08/31 13:52:35;;;;;;;1999.90;999.90;;;;;;;;;;4973435;28;20763;-68
2022/08/31 13:55:31;;;;;;;1999.90;999.90;;;;;;;;;;4975102;28;20331;-68
2022/08/31 13:58:23;;;;;;;1999.90;999.90;;;;;;;;;;4970872;28;20611;-68
2022/08/31 14:01:21;;;;;;;1999.90;999.90;;;;;;;;;;4954084;28;20401;-69
2022/08/31 14:04:42;;;;;;;1999.90;999.90;;;;;;;;;;4955972;29;20352;-69
2022/08/31 14:07:30;;;;;;;1999.90;999.90;;;;;;;;;;4962793;28;20224;-67
2022/08/31 14:10:18;;;;;;;1999.90;999.90;;;;;;;;;;4972818;28;20286;-69
2022/08/31 14:13:08;;;;;;;1999.90;999.90;;;;;;;;;;4974730;28;20230;-67
2022/08/31 14:15:55;;;;;;;1999.90;999.90;;;;;;;;;;4963682;28;20762;-68
2022/08/31 14:18:41;;;;;;;1999.90;999.90;;;;;;;;;;4973596;28;20673;-68
2022/08/31 14:21:28;;;;;;;1999.90;999.90;;;;;;;;;;4974295;28;20208;-68
2022/08/31 14:24:15;;;;;;;1999.90;999.90;;;;;;;;;;4974626;28;20469;-68
2022/08/31 14:27:00;;;;;;;1999.90;999.90;;;;;;;;;;4974573;28;20281;-67
2022/08/31 14:29:45;;;;;;;1999.90;999.90;;;;;;;;;;4974544;28;20213;-68
2022/08/31 14:32:32;;;;;;;1999.90;999.90;;;;;;;;;;4968719;28;20236;-67
2022/08/31 14:35:17;;;;;;;1999.90;999.90;;;;;;;;;;4968071;28;20800;-66
2022/08/31 14:38:01;;;;;;;1999.90;999.90;;;;;;;;;;4974170;28;20304;-68
2022/08/31 14:40:48;;;;;;;1999.90;999.90;;;;;;;;;;4968063;28;20209;-66
2022/08/31 14:43:33;;;;;;;1999.90;999.90;;;;;;;;;;4964982;28;20353;-68
2022/08/31 14:46:26;;;;;;;1999.90;999.90;;;;;;;;;;4966774;28;20236;-67
2022/08/31 14:49:11;;;;;;;1999.90;999.90;;;;;;;;;;4966095;28;20245;-70
2022/08/31 14:52:04;;;;;;;1999.90;999.90;;;;;;;;;;4969345;28;20947;-67
2022/08/31 14:54:50;;;;;;;1999.90;999.90;;;;;;;;;;4965005;28;20227;-67
2022/08/31 14:57:39;;;;;;;1999.90;999.90;;;;;;;;;;4966326;28;20451;-69
2022/08/31 15:00:24;;;;;;;1999.90;999.90;;;;;;;;;;4970082;28;20214;-66
2022/08/31 15:03:10;;;;;;;1999.90;999.90;;;;;;;;;;4970741;28;20209;-67
2022/08/31 15:06:02;;;;;;;1999.90;999.90;;;;;;;;;;4973176;28;20245;-67
2022/08/31 15:08:47;;;;;;;1999.90;999.90;;;;;;;;;;4965611;28;20214;-66
2022/08/31 15:11:33;;;;;;;1999.90;999.90;;;;;;;;;;4967799;28;20277;-67
2022/08/31 15:14:20;;;;;;;1999.90;999.90;;;;;;;;;;4961113;28;20222;-66
2022/08/31 15:17:09;;;;;;;1999.90;999.90;;;;;;;;;;4968096;28;20222;-67
2022/08/31 15:19:54;;;;;;;1999.90;999.90;;;;;;;;;;4969593;28;20563;-67
2022/08/31 15:22:41;;;;;;;1999.90;999.90;;;;;;;;;;4971173;28;20292;-68
2022/08/31 15:25:26;;;;;;;1999.90;999.90;;;;;;;;;;4971495;28;20363;-67
2022/08/31 15:28:11;;;;;;;1999.90;999.90;;;;;;;;;;4971340;28;20208;-67
2022/08/31 15:30:59;;;;;;;1999.90;999.90;;;;;;;;;;4968410;28;20644;-68
2022/08/31 15:33:48;;;;;;;1999.90;999.90;;;;;;;;;;4966480;28;20208;-66
2022/08/31 15:36:35;;;;;;;1999.90;999.90;;;;;;;;;;4972895;28;20629;-68
2022/08/31 15:39:20;;;;;;;1999.90;999.90;;;;;;;;;;4971012;28;20278;-68
2022/08/31 15:42:08;;;;;;;1999.90;999.90;;;;;;;;;;4972846;28;20287;-67
2022/08/31 15:44:55;;;;;;;1999.90;999.90;;;;;;;;;;4971080;28;20581;-67
2022/08/31 15:50:48;;;;;;;1999.90;999.90;;;;;;;;;;4968225;28;20271;-67
2022/08/31 15:53:34;;;;;;;1999.90;999.90;;;;;;;;;;4967096;28;20440;-67
2022/08/31 15:56:22;;;;;;;1999.90;999.90;;;;;;;;;;4967715;28;20739;-67